Pinar del Rio, Cuba
Current Conditions -  °F | °C
As of 3:55 PM on Thursday 27 Nov 2014 (Local Time) from MUHA Reporting Station
Clear Clear  
Wind Chill: 73°   Ceiling: Unl
Heat Index: 73°   Visibility: 6mi
Dew Point: 45°   Wind: 12mph
Humidity: 36%   Direction: 350°N
Pressure: 30.15"   Gusts: NA
Location:  22.41°N, 83.7°W
Report Text: MUHA 271955Z 35010KT 310V010 9000 NSC 23/07 Q1021
Loading
Personal Weather Stations






























Interactive Weather Map New forecast layout! Learn more

10-Day Weather Forecast

Advertisements
Track Severe Weather on mobile